sensor_id;sensor_type;location;lat;lon;timestamp;P1;durP1;ratioP1;P2;durP2;ratioP2
60426;SDS011;46274;47.168;27.604;2022-10-16T00:07:09;20.47;;;7.77;;
60426;SDS011;46274;47.168;27.604;2022-10-16T00:13:11;31.63;;;10.40;;
60426;SDS011;46274;47.168;27.604;2022-10-16T00:19:13;21.63;;;6.67;;
60426;SDS011;46274;47.168;27.604;2022-10-16T00:25:37;18.40;;;7.10;;
60426;SDS011;46274;47.168;27.604;2022-10-16T00:31:55;18.53;;;8.20;;
60426;SDS011;46274;47.168;27.604;2022-10-16T00:37:58;16.23;;;7.17;;
60426;SDS011;46274;47.168;27.604;2022-10-16T00:44:04;15.97;;;7.07;;
60426;SDS011;46274;47.168;27.604;2022-10-16T00:50:40;13.77;;;6.17;;
60426;SDS011;46274;47.168;27.604;2022-10-16T00:57:02;14.70;;;6.93;;
60426;SDS011;46274;47.168;27.604;2022-10-16T01:03:24;13.13;;;6.20;;
60426;SDS011;46274;47.168;27.604;2022-10-16T01:15:57;14.60;;;6.20;;
60426;SDS011;46274;47.168;27.604;2022-10-16T01:22:21;15.60;;;6.73;;
60426;SDS011;46274;47.168;27.604;2022-10-16T01:28:34;27.33;;;10.80;;
60426;SDS011;46274;47.168;27.604;2022-10-16T01:35:02;19.77;;;6.23;;
60426;SDS011;46274;47.168;27.604;2022-10-16T01:47:21;15.37;;;6.17;;
60426;SDS011;46274;47.168;27.604;2022-10-16T01:53:27;11.50;;;5.37;;
60426;SDS011;46274;47.168;27.604;2022-10-16T01:59:30;11.77;;;6.27;;
60426;SDS011;46274;47.168;27.604;2022-10-16T02:05:42;21.30;;;7.50;;
60426;SDS011;46274;47.168;27.604;2022-10-16T02:11:52;12.50;;;5.40;;
60426;SDS011;46274;47.168;27.604;2022-10-16T02:17:56;15.70;;;5.03;;
60426;SDS011;46274;47.168;27.604;2022-10-16T02:30:59;18.07;;;6.33;;
60426;SDS011;46274;47.168;27.604;2022-10-16T02:37:06;15.47;;;6.70;;
60426;SDS011;46274;47.168;27.604;2022-10-16T02:43:09;17.73;;;6.83;;
60426;SDS011;46274;47.168;27.604;2022-10-16T02:49:12;26.03;;;10.20;;
60426;SDS011;46274;47.168;27.604;2022-10-16T02:55:14;14.97;;;6.53;;
60426;SDS011;46274;47.168;27.604;2022-10-16T03:01:16;13.90;;;5.97;;
60426;SDS011;46274;47.168;27.604;2022-10-16T03:07:19;11.00;;;5.97;;
60426;SDS011;46274;47.168;27.604;2022-10-16T03:13:21;19.57;;;8.47;;
60426;SDS011;46274;47.168;27.604;2022-10-16T03:19:23;14.77;;;8.13;;
60426;SDS011;46274;47.168;27.604;2022-10-16T03:25:26;14.97;;;6.83;;
60426;SDS011;46274;47.168;27.604;2022-10-16T03:31:29;14.37;;;5.73;;
60426;SDS011;46274;47.168;27.604;2022-10-16T03:37:32;13.60;;;5.53;;
60426;SDS011;46274;47.168;27.604;2022-10-16T03:43:34;15.30;;;6.43;;
60426;SDS011;46274;47.168;27.604;2022-10-16T03:49:36;23.47;;;7.13;;
60426;SDS011;46274;47.168;27.604;2022-10-16T03:55:38;17.43;;;7.70;;
60426;SDS011;46274;47.168;27.604;2022-10-16T04:01:43;24.20;;;7.83;;
60426;SDS011;46274;47.168;27.604;2022-10-16T04:07:45;13.93;;;7.50;;
60426;SDS011;46274;47.168;27.604;2022-10-16T04:13:47;22.70;;;9.73;;
60426;SDS011;46274;47.168;27.604;2022-10-16T04:19:50;13.00;;;6.20;;
60426;SDS011;46274;47.168;27.604;2022-10-16T04:25:52;15.07;;;6.73;;
60426;SDS011;46274;47.168;27.604;2022-10-16T04:31:54;21.67;;;9.60;;
60426;SDS011;46274;47.168;27.604;2022-10-16T04:37:59;25.13;;;8.57;;
60426;SDS011;46274;47.168;27.604;2022-10-16T04:44:01;53.40;;;12.93;;
60426;SDS011;46274;47.168;27.604;2022-10-16T04:50:03;36.27;;;10.70;;
60426;SDS011;46274;47.168;27.604;2022-10-16T04:56:05;12.10;;;5.33;;
60426;SDS011;46274;47.168;27.604;2022-10-16T05:02:07;12.37;;;6.47;;
60426;SDS011;46274;47.168;27.604;2022-10-16T05:08:09;20.60;;;6.97;;
60426;SDS011;46274;47.168;27.604;2022-10-16T05:14:11;26.93;;;10.07;;
60426;SDS011;46274;47.168;27.604;2022-10-16T05:20:12;18.33;;;7.60;;
60426;SDS011;46274;47.168;27.604;2022-10-16T05:26:14;10.97;;;5.57;;
60426;SDS011;46274;47.168;27.604;2022-10-16T05:32:17;16.27;;;6.17;;
60426;SDS011;46274;47.168;27.604;2022-10-16T05:38:20;11.87;;;4.73;;
60426;SDS011;46274;47.168;27.604;2022-10-16T05:44:22;22.70;;;7.53;;
60426;SDS011;46274;47.168;27.604;2022-10-16T05:50:40;18.17;;;8.00;;
60426;SDS011;46274;47.168;27.604;2022-10-16T05:57:27;23.40;;;7.10;;
60426;SDS011;46274;47.168;27.604;2022-10-16T06:03:30;16.90;;;8.30;;
60426;SDS011;46274;47.168;27.604;2022-10-16T08:12:32;13.10;;;3.17;;
60426;SDS011;46274;47.168;27.604;2022-10-16T08:19:04;15.03;;;3.90;;
60426;SDS011;46274;47.168;27.604;2022-10-16T08:25:23;8.07;;;2.77;;
60426;SDS011;46274;47.168;27.604;2022-10-16T08:31:26;5.57;;;2.50;;
60426;SDS011;46274;47.168;27.604;2022-10-16T08:37:32;7.50;;;2.77;;
60426;SDS011;46274;47.168;27.604;2022-10-16T08:43:37;7.50;;;2.30;;
60426;SDS011;46274;47.168;27.604;2022-10-16T08:49:43;6.77;;;3.00;;
60426;SDS011;46274;47.168;27.604;2022-10-16T08:56:12;8.30;;;3.50;;
60426;SDS011;46274;47.168;27.604;2022-10-16T09:02:35;6.67;;;2.70;;
60426;SDS011;46274;47.168;27.604;2022-10-16T09:15:35;7.00;;;2.80;;
60426;SDS011;46274;47.168;27.604;2022-10-16T09:21:48;13.80;;;2.80;;
60426;SDS011;46274;47.168;27.604;2022-10-16T09:28:21;5.60;;;2.67;;
60426;SDS011;46274;47.168;27.604;2022-10-16T09:34:39;5.77;;;2.63;;
60426;SDS011;46274;47.168;27.604;2022-10-16T09:47:27;8.23;;;2.73;;
60426;SDS011;46274;47.168;27.604;2022-10-16T09:53:42;10.20;;;2.87;;
60426;SDS011;46274;47.168;27.604;2022-10-16T10:00:08;6.63;;;2.20;;
60426;SDS011;46274;47.168;27.604;2022-10-16T10:06:25;6.33;;;2.07;;
60426;SDS011;46274;47.168;27.604;2022-10-16T10:12:45;5.93;;;1.60;;
60426;SDS011;46274;47.168;27.604;2022-10-16T10:18:58;9.20;;;2.37;;
60426;SDS011;46274;47.168;27.604;2022-10-16T10:25:16;5.40;;;2.10;;
60426;SDS011;46274;47.168;27.604;2022-10-16T10:31:44;9.23;;;2.20;;
60426;SDS011;46274;47.168;27.604;2022-10-16T10:38:20;11.60;;;2.20;;
60426;SDS011;46274;47.168;27.604;2022-10-16T10:51:20;4.70;;;2.00;;
60426;SDS011;46274;47.168;27.604;2022-10-16T11:23:41;7.20;;;2.47;;
60426;SDS011;46274;47.168;27.604;2022-10-16T11:29:59;6.03;;;1.80;;
60426;SDS011;46274;47.168;27.604;2022-10-16T11:36:36;6.33;;;2.30;;
60426;SDS011;46274;47.168;27.604;2022-10-16T12:09:56;5.70;;;2.20;;
60426;SDS011;46274;47.168;27.604;2022-10-16T12:22:15;7.90;;;2.20;;
60426;SDS011;46274;47.168;27.604;2022-10-16T12:28:21;5.67;;;2.23;;
60426;SDS011;46274;47.168;27.604;2022-10-16T12:34:42;8.30;;;2.47;;
60426;SDS011;46274;47.168;27.604;2022-10-16T12:41:03;5.60;;;2.03;;
60426;SDS011;46274;47.168;27.604;2022-10-16T12:48:18;8.60;;;2.60;;
60426;SDS011;46274;47.168;27.604;2022-10-16T12:54:36;7.50;;;1.90;;
60426;SDS011;46274;47.168;27.604;2022-10-16T13:20:56;7.03;;;2.10;;
60426;SDS011;46274;47.168;27.604;2022-10-16T13:27:26;9.43;;;2.07;;
60426;SDS011;46274;47.168;27.604;2022-10-16T13:33:48;4.03;;;2.00;;
60426;SDS011;46274;47.168;27.604;2022-10-16T13:47:00;3.77;;;1.90;;
60426;SDS011;46274;47.168;27.604;2022-10-16T13:53:29;10.17;;;1.80;;
60426;SDS011;46274;47.168;27.604;2022-10-16T13:59:38;6.93;;;2.00;;
60426;SDS011;46274;47.168;27.604;2022-10-16T14:05:47;4.43;;;2.13;;
60426;SDS011;46274;47.168;27.604;2022-10-16T14:12:08;9.50;;;4.07;;
60426;SDS011;46274;47.168;27.604;2022-10-16T14:18:16;6.53;;;2.33;;
60426;SDS011;46274;47.168;27.604;2022-10-16T14:30:36;7.00;;;2.00;;
60426;SDS011;46274;47.168;27.604;2022-10-16T14:36:48;4.73;;;2.30;;
60426;SDS011;46274;47.168;27.604;2022-10-16T14:43:03;5.60;;;2.10;;
60426;SDS011;46274;47.168;27.604;2022-10-16T14:49:22;6.53;;;2.63;;
60426;SDS011;46274;47.168;27.604;2022-10-16T15:02:45;4.67;;;2.00;;
60426;SDS011;46274;47.168;27.604;2022-10-16T16:11:00;17.90;;;8.73;;
60426;SDS011;46274;47.168;27.604;2022-10-16T16:17:27;22.63;;;8.83;;
60426;SDS011;46274;47.168;27.604;2022-10-16T16:24:05;30.17;;;15.10;;
60426;SDS011;46274;47.168;27.604;2022-10-16T16:30:10;21.70;;;7.00;;
60426;SDS011;46274;47.168;27.604;2022-10-16T16:49:08;16.77;;;7.83;;
60426;SDS011;46274;47.168;27.604;2022-10-16T17:16:01;23.83;;;9.67;;
60426;SDS011;46274;47.168;27.604;2022-10-16T17:52:38;37.47;;;14.37;;
60426;SDS011;46274;47.168;27.604;2022-10-16T18:12:49;17.70;;;8.57;;
60426;SDS011;46274;47.168;27.604;2022-10-16T18:19:19;15.40;;;7.40;;
60426;SDS011;46274;47.168;27.604;2022-10-16T18:26:27;21.00;;;7.93;;
60426;SDS011;46274;47.168;27.604;2022-10-16T18:32:56;14.20;;;7.57;;
60426;SDS011;46274;47.168;27.604;2022-10-16T18:47:14;14.23;;;7.30;;
60426;SDS011;46274;47.168;27.604;2022-10-16T19:02:00;22.60;;;8.43;;
60426;SDS011;46274;47.168;27.604;2022-10-16T19:08:32;27.70;;;9.07;;
60426;SDS011;46274;47.168;27.604;2022-10-16T19:15:39;30.03;;;9.80;;
60426;SDS011;46274;47.168;27.604;2022-10-16T19:22:06;38.93;;;18.40;;
60426;SDS011;46274;47.168;27.604;2022-10-16T19:29:12;19.63;;;9.83;;
60426;SDS011;46274;47.168;27.604;2022-10-16T19:35:26;21.33;;;10.90;;
60426;SDS011;46274;47.168;27.604;2022-10-16T19:41:54;48.07;;;19.63;;
60426;SDS011;46274;47.168;27.604;2022-10-16T19:48:52;50.33;;;19.73;;
60426;SDS011;46274;47.168;27.604;2022-10-16T19:55:15;98.80;;;38.37;;
60426;SDS011;46274;47.168;27.604;2022-10-16T20:02:15;42.97;;;17.67;;
60426;SDS011;46274;47.168;27.604;2022-10-16T20:08:23;66.87;;;25.63;;
60426;SDS011;46274;47.168;27.604;2022-10-16T20:15:07;38.27;;;16.63;;
60426;SDS011;46274;47.168;27.604;2022-10-16T20:21:14;51.20;;;23.17;;
60426;SDS011;46274;47.168;27.604;2022-10-16T20:27:22;33.03;;;14.50;;
60426;SDS011;46274;47.168;27.604;2022-10-16T20:33:34;37.43;;;12.53;;
60426;SDS011;46274;47.168;27.604;2022-10-16T20:39:46;24.17;;;10.07;;
60426;SDS011;46274;47.168;27.604;2022-10-16T20:46:10;18.40;;;7.47;;
60426;SDS011;46274;47.168;27.604;2022-10-16T20:52:46;26.87;;;10.77;;
60426;SDS011;46274;47.168;27.604;2022-10-16T20:59:13;31.80;;;15.13;;
60426;SDS011;46274;47.168;27.604;2022-10-16T21:05:40;35.40;;;12.73;;
60426;SDS011;46274;47.168;27.604;2022-10-16T21:12:23;27.93;;;12.00;;
60426;SDS011;46274;47.168;27.604;2022-10-16T21:18:32;19.93;;;9.00;;
60426;SDS011;46274;47.168;27.604;2022-10-16T21:24:50;19.40;;;9.07;;
60426;SDS011;46274;47.168;27.604;2022-10-16T21:31:16;28.47;;;13.13;;
60426;SDS011;46274;47.168;27.604;2022-10-16T21:37:37;17.87;;;8.80;;
60426;SDS011;46274;47.168;27.604;2022-10-16T21:43:58;23.80;;;11.13;;
60426;SDS011;46274;47.168;27.604;2022-10-16T21:50:07;14.77;;;7.67;;
60426;SDS011;46274;47.168;27.604;2022-10-16T21:56:16;26.33;;;8.83;;
60426;SDS011;46274;47.168;27.604;2022-10-16T22:02:37;16.80;;;8.03;;
60426;SDS011;46274;47.168;27.604;2022-10-16T22:08:51;18.73;;;7.97;;
60426;SDS011;46274;47.168;27.604;2022-10-16T22:14:54;19.70;;;9.33;;
60426;SDS011;46274;47.168;27.604;2022-10-16T22:21:00;17.23;;;7.60;;
60426;SDS011;46274;47.168;27.604;2022-10-16T22:27:07;17.90;;;7.03;;
60426;SDS011;46274;47.168;27.604;2022-10-16T22:33:26;23.07;;;8.00;;
60426;SDS011;46274;47.168;27.604;2022-10-16T22:39:29;21.73;;;8.10;;
60426;SDS011;46274;47.168;27.604;2022-10-16T22:45:32;17.43;;;7.37;;
60426;SDS011;46274;47.168;27.604;2022-10-16T22:51:41;15.27;;;5.33;;
60426;SDS011;46274;47.168;27.604;2022-10-16T22:57:43;13.87;;;5.97;;
60426;SDS011;46274;47.168;27.604;2022-10-16T23:03:51;15.20;;;6.53;;
60426;SDS011;46274;47.168;27.604;2022-10-16T23:10:01;18.87;;;6.50;;
60426;SDS011;46274;47.168;27.604;2022-10-16T23:16:38;11.90;;;5.70;;
60426;SDS011;46274;47.168;27.604;2022-10-16T23:22:47;14.10;;;5.50;;
60426;SDS011;46274;47.168;27.604;2022-10-16T23:28:49;17.73;;;7.83;;
60426;SDS011;46274;47.168;27.604;2022-10-16T23:34:51;11.97;;;5.40;;
60426;SDS011;46274;47.168;27.604;2022-10-16T23:40:56;10.50;;;4.93;;
60426;SDS011;46274;47.168;27.604;2022-10-16T23:47:02;12.43;;;6.10;;
60426;SDS011;46274;47.168;27.604;2022-10-16T23:53:04;11.77;;;6.03;;
60426;SDS011;46274;47.168;27.604;2022-10-16T23:59:10;16.10;;;8.30;;
